createdAt,value
2023-02-24T00:01:40.367Z,130.40
2023-02-24T00:04:12.531Z,133.45
2023-02-24T00:06:41.764Z,137.27
2023-02-24T00:09:20.122Z,134.60
2023-02-24T00:11:53.148Z,137.77
2023-02-24T00:14:20.419Z,131.73
2023-02-24T00:16:48.018Z,136.38
2023-02-24T00:19:17.875Z,139.55
2023-02-24T00:21:45.584Z,133.90
2023-02-24T00:24:13.290Z,143.88
2023-02-24T00:26:40.718Z,133.88
2023-02-24T00:29:10.671Z,127.72
2023-02-24T00:31:41.894Z,126.68
2023-02-24T00:34:12.674Z,123.05
2023-02-24T00:36:39.926Z,123.47
2023-02-24T00:39:09.636Z,107.30
2023-02-24T00:41:40.250Z,115.68
2023-02-24T00:44:12.720Z,110.05
2023-02-24T00:46:42.505Z,106.32
2023-02-24T00:49:13.240Z,115.55
2023-02-24T00:51:41.837Z,104.40
2023-02-24T00:54:10.366Z,96.90
2023-02-24T00:56:37.345Z,100.32
2023-02-24T00:59:04.260Z,90.78
2023-02-24T01:01:33.869Z,91.70
2023-02-24T01:04:11.125Z,93.18
2023-02-24T01:06:45.119Z,90.47
2023-02-24T01:09:15.138Z,94.95
2023-02-24T01:12:22.253Z,83.47
2023-02-24T01:14:52.765Z,81.72
2023-02-24T01:17:21.000Z,85.55
2023-02-24T01:19:49.759Z,84.20
2023-02-24T01:22:19.763Z,86.55
2023-02-24T01:24:47.549Z,85.20
2023-02-24T01:27:18.716Z,87.78
2023-02-24T01:29:49.328Z,91.38
2023-02-24T01:32:19.940Z,83.70
2023-02-24T01:34:48.059Z,81.78
2023-02-24T01:37:16.495Z,90.93
2023-02-24T01:39:45.893Z,84.85
2023-02-24T01:42:19.752Z,92.05
2023-02-24T01:44:47.658Z,95.20
2023-02-24T01:47:18.524Z,92.85
2023-02-24T01:49:47.704Z,93.95
2023-02-24T01:52:22.849Z,88.50
2023-02-24T01:54:55.161Z,91.38
2023-02-24T01:57:25.999Z,90.15
2023-02-24T01:59:55.206Z,89.30
2023-02-24T02:02:23.507Z,98.57
2023-02-24T02:04:57.436Z,85.45
2023-02-24T02:07:28.489Z,88.20
2023-02-24T02:10:00.363Z,95.82
2023-02-24T02:12:28.437Z,97.03
2023-02-24T02:14:59.505Z,92.85
2023-02-24T02:17:51.305Z,90.60
2023-02-24T02:20:42.366Z,88.28
2023-02-24T02:23:37.157Z,84.93
2023-02-24T02:26:10.865Z,93.53
2023-02-24T02:31:46.642Z,91.22
2023-02-24T02:34:45.330Z,93.93
2023-02-24T02:37:33.281Z,98.90
2023-02-24T02:40:15.576Z,111.13
2023-02-24T02:42:51.266Z,105.78
2023-02-24T02:45:24.384Z,107.93
2023-02-24T02:47:59.365Z,112.88
2023-02-24T02:50:46.079Z,101.53
2023-02-24T02:53:23.100Z,106.40
2023-02-24T02:56:28.768Z,110.68
2023-02-24T02:58:58.200Z,101.38
2023-02-24T03:01:30.037Z,109.20
2023-02-24T03:04:04.720Z,116.55
2023-02-24T03:06:33.695Z,109.68
2023-02-24T03:09:11.447Z,118.72
2023-02-24T03:11:44.318Z,119.28
2023-02-24T03:14:14.683Z,104.00
2023-02-24T03:16:46.141Z,113.63
2023-02-24T03:19:16.473Z,107.55
2023-02-24T03:21:46.144Z,104.47
2023-02-24T03:24:17.889Z,110.53
2023-02-24T03:26:56.458Z,110.53
2023-02-24T03:29:44.713Z,111.07
2023-02-24T03:32:25.319Z,106.38
2023-02-24T03:35:28.946Z,102.10
2023-02-24T03:37:59.531Z,110.00
2023-02-24T03:40:33.156Z,112.75
2023-02-24T03:43:10.086Z,113.60
2023-02-24T03:45:38.633Z,102.70
2023-02-24T03:48:08.507Z,101.68
2023-02-24T03:50:38.091Z,110.60
2023-02-24T03:53:43.502Z,109.72
2023-02-24T03:56:34.845Z,114.30
2023-02-24T03:59:29.128Z,108.50
2023-02-24T04:02:06.085Z,108.78
2023-02-24T04:04:57.249Z,102.88
2023-02-24T04:08:00.420Z,105.45
2023-02-24T04:10:53.624Z,117.65
2023-02-24T04:13:35.354Z,108.63
2023-02-24T04:16:28.252Z,102.53
2023-02-24T04:19:03.946Z,116.05
2023-02-24T04:21:34.634Z,111.57
2023-02-24T04:24:08.610Z,116.03
2023-02-24T04:26:40.513Z,117.88
2023-02-24T04:29:13.844Z,117.93
2023-02-24T04:31:41.454Z,115.43
2023-02-24T04:34:09.591Z,113.88
2023-02-24T04:36:39.438Z,124.72
2023-02-24T04:39:07.703Z,121.95
2023-02-24T04:41:35.843Z,119.55
2023-02-24T04:44:02.791Z,132.13
2023-02-24T04:46:32.431Z,126.88
2023-02-24T04:49:02.138Z,117.63
2023-02-24T04:51:31.819Z,124.25
2023-02-24T04:53:58.758Z,118.00
2023-02-24T04:56:25.732Z,127.15
2023-02-24T04:58:52.681Z,116.43
2023-02-24T05:01:19.918Z,121.35
2023-02-24T05:03:47.793Z,123.53
2023-02-24T05:06:17.713Z,123.88
2023-02-24T05:08:45.157Z,123.78
2023-02-24T05:11:16.483Z,113.20
2023-02-24T05:13:47.120Z,119.60
2023-02-24T05:16:17.342Z,120.82
2023-02-24T05:18:44.850Z,119.78
2023-02-24T05:21:36.375Z,127.25
2023-02-24T05:24:07.370Z,119.47
2023-02-24T05:26:37.067Z,117.10
2023-02-24T05:29:05.693Z,118.15
2023-02-24T05:31:32.797Z,122.40
2023-02-24T05:34:02.791Z,122.70
2023-02-24T05:36:35.501Z,114.57
2023-02-24T05:39:06.970Z,124.53
2023-02-24T05:41:36.117Z,105.78
2023-02-24T05:44:08.597Z,119.28
2023-02-24T05:46:38.962Z,113.25
2023-02-24T05:49:23.260Z,116.25
2023-02-24T05:51:55.637Z,117.40
2023-02-24T05:54:31.963Z,116.63
2023-02-24T05:57:12.026Z,108.72
2023-02-24T05:59:42.924Z,116.18
2023-02-24T06:02:12.996Z,116.70
2023-02-24T06:05:04.359Z,115.50
2023-02-24T06:07:34.711Z,110.13
2023-02-24T06:10:04.930Z,119.82
2023-02-24T06:12:34.510Z,103.03
2023-02-24T06:15:02.365Z,113.15
2023-02-24T06:17:29.326Z,108.40
2023-02-24T06:19:56.284Z,114.30
2023-02-24T06:22:24.953Z,111.10
2023-02-24T06:24:54.180Z,109.78
2023-02-24T06:27:21.718Z,108.65
2023-02-24T06:29:54.003Z,113.18
2023-02-24T06:32:26.202Z,121.78
2023-02-24T06:34:57.586Z,115.78
2023-02-24T06:37:25.028Z,113.40
2023-02-24T06:39:51.985Z,114.38
2023-02-24T06:42:19.085Z,116.25
2023-02-24T06:44:47.044Z,118.50
2023-02-24T06:47:14.763Z,122.18
2023-02-24T06:49:44.964Z,123.38
2023-02-24T06:52:18.402Z,120.00
2023-02-24T06:54:48.362Z,127.57
2023-02-24T06:57:15.282Z,123.75
2023-02-24T06:59:42.377Z,140.48
2023-02-24T07:02:11.083Z,124.10
2023-02-24T07:04:43.951Z,136.95
2023-02-24T07:07:14.319Z,130.80
2023-02-24T07:09:42.756Z,124.90
2023-02-24T07:12:11.200Z,126.70
2023-02-24T07:14:38.643Z,122.03
2023-02-24T07:17:06.504Z,124.75
2023-02-24T07:19:34.195Z,122.40
2023-02-24T07:22:03.703Z,120.75
2023-02-24T07:24:40.589Z,125.88
2023-02-24T07:27:23.517Z,132.43
2023-02-24T07:29:53.229Z,130.57
2023-02-24T07:32:22.475Z,134.15
2023-02-24T07:34:49.684Z,145.52
2023-02-24T07:37:16.973Z,122.68
2023-02-24T07:39:44.007Z,121.05
2023-02-24T07:42:15.065Z,126.10
2023-02-24T07:44:46.804Z,133.75
2023-02-24T07:47:15.930Z,137.70
2023-02-24T07:49:43.792Z,143.50
2023-02-24T07:52:11.644Z,134.85
2023-02-24T07:54:39.472Z,137.32
2023-02-24T07:57:13.362Z,144.63
2023-02-24T07:59:47.234Z,129.63
2023-02-24T08:04:48.236Z,136.85
2023-02-24T08:07:15.486Z,139.50
2023-02-24T08:09:45.812Z,144.57
2023-02-24T08:12:18.652Z,141.13
2023-02-24T08:14:51.572Z,136.57
2023-02-24T08:17:26.502Z,133.57
2023-02-24T08:20:15.593Z,130.10
2023-02-24T08:22:44.457Z,124.55
2023-02-24T08:25:19.061Z,129.35
2023-02-24T08:28:08.036Z,139.82
2023-02-24T08:30:38.868Z,128.95
2023-02-24T08:33:15.838Z,125.22
2023-02-24T08:35:45.096Z,123.30
2023-02-24T08:38:17.522Z,128.77
2023-02-24T08:40:51.879Z,123.50
2023-02-24T08:43:31.257Z,127.80
2023-02-24T08:46:05.478Z,138.82
2023-02-24T08:48:42.254Z,134.80
2023-02-24T08:51:35.156Z,131.70
2023-02-24T08:54:10.955Z,140.30
2023-02-24T08:56:43.537Z,141.40
2023-02-24T08:59:29.371Z,135.55
2023-02-24T09:02:17.489Z,155.27
2023-02-24T09:05:04.236Z,152.90
2023-02-24T09:07:42.189Z,146.98
2023-02-24T09:10:17.834Z,149.38
2023-02-24T09:12:46.082Z,151.52
2023-02-24T09:15:15.471Z,149.45
2023-02-24T09:17:44.749Z,147.30
2023-02-24T09:20:27.291Z,151.27
2023-02-24T09:23:03.606Z,151.10
2023-02-24T09:25:41.667Z,158.30
2023-02-24T09:28:17.474Z,148.55
2023-02-24T09:30:53.666Z,138.40
2023-02-24T09:33:39.198Z,149.23
2023-02-24T09:36:10.793Z,144.25
2023-02-24T09:39:00.747Z,148.23
2023-02-24T09:41:55.404Z,146.85
2023-02-24T09:44:34.448Z,150.25
2023-02-24T09:47:40.021Z,163.43
2023-02-24T09:50:55.108Z,161.38
2023-02-24T09:56:04.020Z,159.65
2023-02-24T09:58:43.101Z,150.27
2023-02-24T10:01:46.323Z,146.70
2023-02-24T10:04:36.167Z,139.38
2023-02-24T10:07:15.223Z,148.27
2023-02-24T10:10:20.752Z,155.88
2023-02-24T10:13:15.370Z,149.35
2023-02-24T10:15:58.626Z,153.10
2023-02-24T10:18:44.776Z,159.48
2023-02-24T10:21:48.384Z,165.02
2023-02-24T10:24:37.606Z,172.75
2023-02-24T10:27:25.081Z,169.85
2023-02-24T10:30:10.886Z,175.40
2023-02-24T10:32:53.685Z,163.98
2023-02-24T10:35:26.072Z,182.40
2023-02-24T10:37:54.002Z,172.38
2023-02-24T10:40:43.926Z,171.77
2023-02-24T10:43:17.851Z,161.48
2023-02-24T10:45:46.451Z,159.02
2023-02-24T10:48:40.808Z,160.43
2023-02-24T10:51:19.805Z,155.25
2023-02-24T10:54:09.442Z,158.32
2023-02-24T10:56:55.468Z,154.35
2023-02-24T10:59:25.441Z,166.13
2023-02-24T11:02:06.731Z,160.57
2023-02-24T11:05:04.380Z,165.27
2023-02-24T11:07:53.556Z,168.80
2023-02-24T11:10:26.382Z,147.95
2023-02-24T11:13:14.709Z,156.23
2023-02-24T11:16:07.459Z,147.80
2023-02-24T11:18:34.677Z,163.23
2023-02-24T11:21:04.958Z,156.75
2023-02-24T11:23:36.131Z,153.23
2023-02-24T11:26:16.622Z,153.23
2023-02-24T11:28:56.004Z,153.32
2023-02-24T11:31:26.456Z,163.65
2023-02-24T11:34:33.071Z,164.80
2023-02-24T11:37:17.717Z,170.35
2023-02-24T11:40:15.642Z,167.35
2023-02-24T11:43:03.235Z,149.60
2023-02-24T11:45:54.735Z,161.05
2023-02-24T11:48:27.499Z,161.38
2023-02-24T11:51:03.199Z,150.90
2023-02-24T11:54:06.680Z,156.73
2023-02-24T11:56:39.215Z,148.40
2023-02-24T11:59:12.471Z,149.45
2023-02-24T12:01:46.363Z,151.15
2023-02-24T12:04:43.507Z,161.63
2023-02-24T12:07:29.094Z,151.90
2023-02-24T12:10:14.436Z,157.30
2023-02-24T12:13:03.097Z,154.93
2023-02-24T12:16:00.069Z,143.23
2023-02-24T12:18:41.038Z,133.30
2023-02-24T12:21:38.133Z,144.55
2023-02-24T12:24:08.657Z,134.80
2023-02-24T12:26:47.934Z,139.98
2023-02-24T12:29:30.089Z,134.88
2023-02-24T12:32:22.469Z,132.27
2023-02-24T12:35:08.537Z,124.05
2023-02-24T12:37:35.447Z,128.38
2023-02-24T12:40:14.750Z,118.75
2023-02-24T12:43:15.841Z,121.28
2023-02-24T12:46:04.384Z,114.15
2023-02-24T12:49:03.064Z,116.90
2023-02-24T12:51:50.078Z,129.38
2023-02-24T12:54:47.444Z,125.57
2023-02-24T12:57:41.732Z,135.02
2023-02-24T13:00:32.429Z,132.35
2023-02-24T13:03:10.834Z,133.73
2023-02-24T13:05:47.703Z,127.68
2023-02-24T13:08:14.565Z,129.75
2023-02-24T13:10:50.049Z,120.75
2023-02-24T13:13:46.548Z,127.68
2023-02-24T13:16:13.659Z,125.07
2023-02-24T13:18:40.904Z,119.28
2023-02-24T13:21:22.814Z,120.63
2023-02-24T13:23:57.438Z,137.80
2023-02-24T13:26:26.281Z,130.77
2023-02-24T13:29:11.402Z,128.23
2023-02-24T13:31:51.120Z,127.53
2023-02-24T13:34:43.268Z,133.93
2023-02-24T13:37:11.514Z,174.15
2023-02-24T13:39:44.348Z,132.70
2023-02-24T13:42:20.360Z,135.10
2023-02-24T13:45:18.365Z,127.60
2023-02-24T13:48:13.546Z,132.90
2023-02-24T13:50:58.285Z,127.68
2023-02-24T13:53:54.068Z,120.15
2023-02-24T13:56:46.175Z,124.00
2023-02-24T13:59:38.487Z,125.43
2023-02-24T14:02:16.098Z,122.53
2023-02-24T14:04:55.221Z,123.88
2023-02-24T14:07:33.532Z,118.20
2023-02-24T14:10:07.234Z,125.10
2023-02-24T14:15:05.300Z,124.68
2023-02-24T14:17:36.025Z,123.40
2023-02-24T14:20:13.170Z,126.45
2023-02-24T14:22:47.370Z,115.60
2023-02-24T14:25:16.117Z,114.25
2023-02-24T14:27:45.243Z,110.57
2023-02-24T14:30:40.457Z,121.65
2023-02-24T14:33:18.068Z,123.85
2023-02-24T14:35:48.276Z,122.80
2023-02-24T14:38:36.216Z,121.82
2023-02-24T14:41:07.049Z,112.22
2023-02-24T14:43:41.885Z,120.82
2023-02-24T14:46:10.176Z,114.47
2023-02-24T14:48:37.505Z,122.15
2023-02-24T14:51:10.350Z,114.75
2023-02-24T14:53:43.498Z,121.80
2023-02-24T14:56:12.816Z,112.93
2023-02-24T14:58:46.796Z,112.32
2023-02-24T15:01:19.249Z,118.88
2023-02-24T15:03:49.687Z,108.60
2023-02-24T15:06:25.334Z,100.32
2023-02-24T15:09:06.241Z,98.15
2023-02-24T15:11:33.777Z,104.80
2023-02-24T15:14:07.310Z,109.90
2023-02-24T15:16:37.453Z,107.15
2023-02-24T15:19:04.663Z,100.88
2023-02-24T15:21:32.967Z,90.20
2023-02-24T15:24:03.403Z,92.72
2023-02-24T15:26:33.869Z,91.40
2023-02-24T15:29:03.257Z,95.22
2023-02-24T15:31:30.730Z,92.10
2023-02-24T15:34:03.321Z,99.50
2023-02-24T15:36:36.607Z,96.70
2023-02-24T15:39:07.421Z,93.78
2023-02-24T15:41:44.688Z,95.05
2023-02-24T15:44:32.692Z,94.43
2023-02-24T15:47:12.028Z,90.40
2023-02-24T15:49:38.936Z,102.30
2023-02-24T15:52:09.944Z,90.10
2023-02-24T15:54:39.025Z,97.75
2023-02-24T15:57:06.450Z,92.63
2023-02-24T15:59:34.013Z,102.13
2023-02-24T16:02:00.994Z,90.90
2023-02-24T16:04:28.100Z,93.63
2023-02-24T16:06:57.583Z,90.78
2023-02-24T16:09:37.093Z,100.03
2023-02-24T16:12:32.134Z,101.68
2023-02-24T16:15:05.941Z,100.55
2023-02-24T16:20:11.621Z,102.82
2023-02-24T16:22:38.600Z,93.60
2023-02-24T16:25:06.818Z,95.65
2023-02-24T16:27:34.512Z,115.05
2023-02-24T16:30:01.472Z,101.93
2023-02-24T16:32:28.626Z,105.85
2023-02-24T16:34:56.423Z,98.30
2023-02-24T16:37:30.032Z,94.57
2023-02-24T16:39:59.221Z,104.80
2023-02-24T16:42:26.194Z,111.63
2023-02-24T16:44:53.205Z,103.07
2023-02-24T16:47:24.325Z,101.80
2023-02-24T16:49:55.273Z,97.45
2023-02-24T16:52:23.469Z,106.00
2023-02-24T16:54:50.749Z,106.53
2023-02-24T16:57:17.720Z,106.68
2023-02-24T16:59:44.686Z,109.15
2023-02-24T17:02:20.719Z,94.38
2023-02-24T17:04:47.806Z,98.13
2023-02-24T17:07:16.187Z,111.35
2023-02-24T17:09:43.295Z,109.60
2023-02-24T17:12:13.542Z,108.75
2023-02-24T17:14:42.546Z,115.93
2023-02-24T17:17:09.633Z,101.85
2023-02-24T17:19:36.570Z,104.38
2023-02-24T17:22:04.554Z,108.20
2023-02-24T17:24:31.641Z,105.85
2023-02-24T17:27:00.595Z,107.43
2023-02-24T17:29:27.912Z,113.80
2023-02-24T17:31:55.039Z,113.82
2023-02-24T17:34:23.992Z,119.10
2023-02-24T17:36:50.984Z,115.03
2023-02-24T17:39:18.008Z,116.43
2023-02-24T17:41:45.464Z,123.95
2023-02-24T17:44:12.396Z,103.22
2023-02-24T17:46:39.487Z,114.55
2023-02-24T17:49:06.518Z,121.32
2023-02-24T17:51:33.561Z,124.55
2023-02-24T17:54:00.476Z,114.55
2023-02-24T17:56:27.687Z,120.03
2023-02-24T17:58:58.696Z,112.35
2023-02-24T18:01:27.389Z,122.03
2023-02-24T18:03:58.826Z,109.93
2023-02-24T18:06:26.401Z,116.35
2023-02-24T18:08:53.416Z,111.82
2023-02-24T18:11:20.656Z,114.05
2023-02-24T18:13:50.874Z,110.00
2023-02-24T18:16:18.263Z,118.35
2023-02-24T18:18:45.312Z,116.70
2023-02-24T18:21:12.284Z,118.25
2023-02-24T18:23:40.459Z,119.22
2023-02-24T18:26:10.265Z,116.85
2023-02-24T18:28:37.693Z,108.80
2023-02-24T18:31:19.260Z,122.72
2023-02-24T18:33:46.498Z,110.88
2023-02-24T18:36:14.105Z,122.65
2023-02-24T18:38:41.122Z,116.43
2023-02-24T18:41:10.480Z,124.57
2023-02-24T18:43:37.985Z,126.35
2023-02-24T18:46:07.910Z,134.10
2023-02-24T18:48:35.492Z,127.70
2023-02-24T18:51:03.270Z,130.70
2023-02-24T18:53:35.835Z,140.57
2023-02-24T18:56:16.861Z,137.25
2023-02-24T18:58:45.656Z,127.38
2023-02-24T19:01:36.777Z,125.50
2023-02-24T19:04:04.732Z,127.10
2023-02-24T19:06:33.037Z,132.05
2023-02-24T19:09:11.058Z,135.40
2023-02-24T19:11:40.097Z,125.50
2023-02-24T19:14:07.516Z,121.50
2023-02-24T19:16:34.917Z,124.07
2023-02-24T19:19:02.007Z,121.93
2023-02-24T19:21:31.204Z,120.07
2023-02-24T19:24:03.638Z,125.22
2023-02-24T19:26:30.908Z,124.65
2023-02-24T19:28:58.789Z,127.18
2023-02-24T19:31:30.652Z,129.98
2023-02-24T19:34:01.301Z,116.95
2023-02-24T19:36:30.126Z,124.93
2023-02-24T19:38:57.110Z,115.82
2023-02-24T19:41:24.797Z,125.45
2023-02-24T19:43:51.767Z,121.50
2023-02-24T19:46:19.524Z,137.25
2023-02-24T19:48:47.260Z,133.88
2023-02-24T19:51:21.577Z,131.38
2023-02-24T19:53:59.283Z,134.82
2023-02-24T19:56:29.229Z,139.80
2023-02-24T19:58:57.973Z,135.98
2023-02-24T20:01:26.657Z,129.05
2023-02-24T20:03:59.875Z,143.30
2023-02-24T20:06:33.010Z,151.93
2023-02-24T20:09:00.784Z,142.98
2023-02-24T20:11:32.925Z,147.20
2023-02-24T20:13:59.862Z,146.20
2023-02-24T20:16:31.986Z,137.60
2023-02-24T20:19:00.428Z,138.07
2023-02-24T20:21:28.271Z,134.27
2023-02-24T20:23:55.551Z,147.50
2023-02-24T20:26:22.801Z,156.40
2023-02-24T20:28:49.923Z,157.48
2023-02-24T20:31:19.461Z,141.20
2023-02-24T20:33:48.939Z,158.90
2023-02-24T20:36:22.414Z,142.00
2023-02-24T20:41:18.493Z,144.88
2023-02-24T20:43:45.811Z,141.45
2023-02-24T20:46:26.461Z,155.07
2023-02-24T20:48:57.132Z,156.00
2023-02-24T20:51:24.639Z,166.85
2023-02-24T20:53:57.845Z,154.05
2023-02-24T20:59:02.098Z,152.27
2023-02-24T21:01:30.875Z,160.10
2023-02-24T21:03:58.768Z,151.57
2023-02-24T21:06:26.621Z,152.85
2023-02-24T21:08:53.938Z,167.98
2023-02-24T21:11:21.949Z,164.35
2023-02-24T21:13:50.586Z,177.82
2023-02-24T21:16:19.548Z,164.35
2023-02-24T21:18:48.769Z,151.80
2023-02-24T21:21:16.965Z,160.95
2023-02-24T21:23:44.496Z,163.57
2023-02-24T21:26:12.124Z,149.35
2023-02-24T21:28:40.418Z,166.90
2023-02-24T21:31:09.804Z,153.00
2023-02-24T21:33:37.402Z,153.95
2023-02-24T21:36:07.218Z,159.48
2023-02-24T21:38:35.064Z,153.48
2023-02-24T21:41:04.090Z,149.57
2023-02-24T21:43:31.324Z,155.10
2023-02-24T21:46:05.592Z,144.68
2023-02-24T21:48:33.661Z,148.63
2023-02-24T21:51:03.911Z,161.32
2023-02-24T21:53:35.804Z,164.82
2023-02-24T21:56:24.767Z,163.70
2023-02-24T21:59:03.996Z,154.40
2023-02-24T22:01:36.772Z,170.38
2023-02-24T22:04:06.973Z,166.15
2023-02-24T22:06:35.826Z,148.77
2023-02-24T22:09:04.970Z,150.18
2023-02-24T22:11:35.285Z,154.07
2023-02-24T22:14:04.113Z,147.82
2023-02-24T22:16:31.147Z,138.00
2023-02-24T22:18:58.237Z,150.05
2023-02-24T22:21:28.021Z,148.65
2023-02-24T22:23:57.605Z,153.65
2023-02-24T22:26:26.783Z,160.27
2023-02-24T22:28:54.451Z,156.23
2023-02-24T22:31:23.578Z,144.32
2023-02-24T22:33:50.664Z,149.20
2023-02-24T22:36:25.281Z,148.25
2023-02-24T22:38:54.116Z,135.00
2023-02-24T22:41:23.877Z,141.40
2023-02-24T22:43:50.942Z,140.20
2023-02-24T22:46:22.217Z,140.85
2023-02-24T22:48:50.540Z,160.05
2023-02-24T22:51:18.369Z,143.88
2023-02-24T22:53:48.843Z,148.55
2023-02-24T22:56:18.502Z,149.77
2023-02-24T22:58:46.113Z,136.18
2023-02-24T23:01:16.409Z,135.73
2023-02-24T23:03:46.159Z,140.15
2023-02-24T23:06:16.350Z,139.23
2023-02-24T23:08:46.046Z,137.18
2023-02-24T23:11:18.492Z,131.13
2023-02-24T23:13:48.016Z,131.77
2023-02-24T23:16:19.264Z,140.23
2023-02-24T23:18:51.064Z,126.65
2023-02-24T23:21:24.971Z,128.90
2023-02-24T23:23:57.452Z,130.90
2023-02-24T23:26:32.682Z,124.27
2023-02-24T23:28:59.816Z,127.68
2023-02-24T23:31:27.549Z,118.72
2023-02-24T23:33:55.038Z,117.35
2023-02-24T23:36:23.911Z,116.28
2023-02-24T23:38:51.897Z,123.30
2023-02-24T23:41:18.994Z,123.85
2023-02-24T23:43:46.030Z,134.32
2023-02-24T23:46:13.686Z,137.02
2023-02-24T23:48:41.187Z,132.05
2023-02-24T23:51:12.479Z,125.13
2023-02-24T23:53:43.980Z,128.82
2023-02-24T23:56:18.821Z,122.63
2023-02-24T23:58:50.658Z,129.52
